Aviation Digital Data Service (ADDS)

Output produced by METARs form (1327 UTC 23 January 2019)
found at http://www.aviationweather.gov/metar/data/
 
METAR text: FSIA 231300Z 13006KT 9000 -SHRA FEW012 FEW018CB BKN022 27/24 Q1011 TEMPO 8000 SHRA
Conditions at: FSIA (SEYCHELLES INTL , SC) observed 1300 UTC 23 January 2019
Temperature: 27.0°C (81°F)
Dewpoint: 24.0°C (75°F) [RH = 84%]
Pressure (altimeter): 29.85 inches Hg (1011.0 mb)
Winds: from the SE (130 degrees) at 7 MPH (6 knots; 3.1 m/s)
Visibility: 6 miles ( 9 km)
Ceiling: 2200 feet AGL
Clouds: few clouds at 1200 feet AGL
few clouds at 1800 feet AGL
broken clouds at 2200 feet AGL
Weather: -SHRA  (light rain showers)

METAR text: FSIA 231200Z VRB02KT 9999 FEW012 FEW018CB BKN022 28/24 Q1010 TEMPO 8000 -SHRA
Conditions at: FSIA (SEYCHELLES INTL , SC) observed 1200 UTC 23 January 2019
Temperature: 28.0°C (82°F)
Dewpoint: 24.0°C (75°F) [RH = 79%]
Pressure (altimeter): 29.82 inches Hg (1010.0 mb)
Winds: variable direction winds at 2 MPH (2 knots; 1.0 m/s)
Visibility: 6 or more miles (10+ km)
Ceiling: 2200 feet AGL
Clouds: few clouds at 1200 feet AGL
few clouds at 1800 feet AGL
broken clouds at 2200 feet AGL
Weather: no significant weather observed at this time

METAR text: FSIA 231100Z 25008KT 9999 FEW010 FEW016CB BKN019 27/25 Q1010 TEMPO 8000 -SHRA
Conditions at: FSIA (SEYCHELLES INTL , SC) observed 1100 UTC 23 January 2019
Temperature: 27.0°C (81°F)
Dewpoint: 25.0°C (77°F) [RH = 89%]
Pressure (altimeter): 29.82 inches Hg (1010.0 mb)
Winds: from the WSW (250 degrees) at 9 MPH (8 knots; 4.1 m/s)
Visibility: 6 or more miles (10+ km)
Ceiling: 1900 feet AGL
Clouds: few clouds at 1000 feet AGL
few clouds at 1600 feet AGL
broken clouds at 1900 feet AGL
Weather: no significant weather observed at this time

METAR text: FSIA 231000Z 35004KT 320V020 9999 FEW012 FEW018CB SCT023 30/25 Q1011 TEMPO -SHRA BKN021
Conditions at: FSIA (SEYCHELLES INTL , SC) observed 1000 UTC 23 January 2019
Temperature: 30.0°C (86°F)
Dewpoint: 25.0°C (77°F) [RH = 75%]
Pressure (altimeter): 29.85 inches Hg (1011.0 mb)
Winds: from the N (350 degrees) at 5 MPH (4 knots; 2.1 m/s)
Visibility: 6 or more miles (10+ km)
Ceiling: at least 12,000 feet AGL
Clouds: few clouds at 1200 feet AGL
few clouds at 1800 feet AGL
scattered clouds at 2300 feet AGL
Weather: no significant weather observed at this time

METAR text: FSIA 230900Z VRB03KT 9999 FEW018CB SCT022 30/25 Q1011 NOSIG
Conditions at: FSIA (SEYCHELLES INTL , SC) observed 0900 UTC 23 January 2019
Temperature: 30.0°C (86°F)
Dewpoint: 25.0°C (77°F) [RH = 75%]
Pressure (altimeter): 29.85 inches Hg (1011.0 mb)
Winds: variable direction winds at 3 MPH (3 knots; 1.5 m/s)
Visibility: 6 or more miles (10+ km)
Ceiling: at least 12,000 feet AGL
Clouds: few clouds at 1800 feet AGL
scattered clouds at 2200 feet AGL
Weather: no significant weather observed at this time

METAR text: FSIA 230800Z 03003KT 350V060 9999 FEW019CB SCT024 29/25 Q1012 NOSIG
Conditions at: FSIA (SEYCHELLES INTL , SC) observed 0800 UTC 23 January 2019
Temperature: 29.0°C (84°F)
Dewpoint: 25.0°C (77°F) [RH = 79%]
Pressure (altimeter): 29.88 inches Hg (1012.0 mb)
Winds: from the NNE (30 degrees) at 3 MPH (3 knots; 1.5 m/s)
Visibility: 6 or more miles (10+ km)
Ceiling: at least 12,000 feet AGL
Clouds: few clouds at 1900 feet AGL
scattered clouds at 2400 feet AGL
Weather: no significant weather observed at this time

METAR text: FSIA 230700Z 05004KT 020V080 9999 FEW018CB SCT024 29/25 Q1013 TEMPO -SHRA
Conditions at: FSIA (SEYCHELLES INTL , SC) observed 0700 UTC 23 January 2019
Temperature: 29.0°C (84°F)
Dewpoint: 25.0°C (77°F) [RH = 79%]
Pressure (altimeter): 29.91 inches Hg (1013.0 mb)
Winds: from the NE (50 degrees) at 5 MPH (4 knots; 2.1 m/s)
Visibility: 6 or more miles (10+ km)
Ceiling: at least 12,000 feet AGL
Clouds: few clouds at 1800 feet AGL
scattered clouds at 2400 feet AGL
Weather: no significant weather observed at this time

METAR text: FSIA 230600Z 03004KT 360V070 9999 FEW019CB 30/25 Q1013 NOSIG
Conditions at: FSIA (SEYCHELLES INTL , SC) observed 0600 UTC 23 January 2019
Temperature: 30.0°C (86°F)
Dewpoint: 25.0°C (77°F) [RH = 75%]
Pressure (altimeter): 29.91 inches Hg (1013.0 mb)
Winds: from the NNE (30 degrees) at 5 MPH (4 knots; 2.1 m/s)
Visibility: 6 or more miles (10+ km)
Ceiling: at least 12,000 feet AGL
Clouds: few clouds at 1900 feet AGL
Weather: no significant weather observed at this time

METAR text: FSIA 230500Z VRB01KT 9999 FEW018CB 28/25 Q1013 NOSIG
Conditions at: FSIA (SEYCHELLES INTL , SC) observed 0500 UTC 23 January 2019
Temperature: 28.0°C (82°F)
Dewpoint: 25.0°C (77°F) [RH = 84%]
Pressure (altimeter): 29.91 inches Hg (1013.0 mb)
Winds: variable direction winds at 1 MPH (1 knots; 0.5 m/s)
Visibility: 6 or more miles (10+ km)
Ceiling: at least 12,000 feet AGL
Clouds: few clouds at 1800 feet AGL
Weather: no significant weather observed at this time

METAR text: FSIA 230400Z 00000KT 9999 FEW025 28/25 Q1013 NOSIG
Conditions at: FSIA (SEYCHELLES INTL , SC) observed 0400 UTC 23 January 2019
Temperature: 28.0°C (82°F)
Dewpoint: 25.0°C (77°F) [RH = 84%]
Pressure (altimeter): 29.91 inches Hg (1013.0 mb)
Winds: calm
Visibility: 6 or more miles (10+ km)
Ceiling: at least 12,000 feet AGL
Clouds: few clouds at 2500 feet AGL
Weather: no significant weather observed at this time

METAR text: FSIA 230300Z VRB02KT 9999 FEW025 26/24 Q1012 NOSIG
Conditions at: FSIA (SEYCHELLES INTL , SC) observed 0300 UTC 23 January 2019
Temperature: 26.0°C (79°F)
Dewpoint: 24.0°C (75°F) [RH = 89%]
Pressure (altimeter): 29.88 inches Hg (1012.0 mb)
Winds: variable direction winds at 2 MPH (2 knots; 1.0 m/s)
Visibility: 6 or more miles (10+ km)
Ceiling: at least 12,000 feet AGL
Clouds: few clouds at 2500 feet AGL
Weather: no significant weather observed at this time

METAR text: FSIA 230200Z 21002KT 9999 FEW025 26/24 Q1012 NOSIG
Conditions at: FSIA (SEYCHELLES INTL , SC) observed 0200 UTC 23 January 2019
Temperature: 26.0°C (79°F)
Dewpoint: 24.0°C (75°F) [RH = 89%]
Pressure (altimeter): 29.88 inches Hg (1012.0 mb)
Winds: from the SSW (210 degrees) at 2 MPH (2 knots; 1.0 m/s)
Visibility: 6 or more miles (10+ km)
Ceiling: at least 12,000 feet AGL
Clouds: few clouds at 2500 feet AGL
Weather: no significant weather observed at this time

METAR text: FSIA 230100Z 22003KT 200V270 9999 FEW023 26/24 Q1011 NOSIG
Conditions at: FSIA (SEYCHELLES INTL , SC) observed 0100 UTC 23 January 2019
Temperature: 26.0°C (79°F)
Dewpoint: 24.0°C (75°F) [RH = 89%]
Pressure (altimeter): 29.85 inches Hg (1011.0 mb)
Winds: from the SW (220 degrees) at 3 MPH (3 knots; 1.5 m/s)
Visibility: 6 or more miles (10+ km)
Ceiling: at least 12,000 feet AGL
Clouds: few clouds at 2300 feet AGL
Weather: no significant weather observed at this time

METAR text: FSIA 230000Z VRB02KT 9999 FEW025 26/24 Q1011 NOSIG
Conditions at: FSIA (SEYCHELLES INTL , SC) observed 0000 UTC 23 January 2019
Temperature: 26.0°C (79°F)
Dewpoint: 24.0°C (75°F) [RH = 89%]
Pressure (altimeter): 29.85 inches Hg (1011.0 mb)
Winds: variable direction winds at 2 MPH (2 knots; 1.0 m/s)
Visibility: 6 or more miles (10+ km)
Ceiling: at least 12,000 feet AGL
Clouds: few clouds at 2500 feet AGL
Weather: no significant weather observed at this time

METAR text: FSIA 222300Z VRB01KT 9999 FEW025 26/24 Q1011 NOSIG
Conditions at: FSIA (SEYCHELLES INTL , SC) observed 2300 UTC 22 January 2019
Temperature: 26.0°C (79°F)
Dewpoint: 24.0°C (75°F) [RH = 89%]
Pressure (altimeter): 29.85 inches Hg (1011.0 mb)
Winds: variable direction winds at 1 MPH (1 knots; 0.5 m/s)
Visibility: 6 or more miles (10+ km)
Ceiling: at least 12,000 feet AGL
Clouds: few clouds at 2500 feet AGL
Weather: no significant weather observed at this time

METAR text: FSIA 222200Z VRB02KT 9999 FEW025 27/24 Q1011 NOSIG
Conditions at: FSIA (SEYCHELLES INTL , SC) observed 2200 UTC 22 January 2019
Temperature: 27.0°C (81°F)
Dewpoint: 24.0°C (75°F) [RH = 84%]
Pressure (altimeter): 29.85 inches Hg (1011.0 mb)
Winds: variable direction winds at 2 MPH (2 knots; 1.0 m/s)
Visibility: 6 or more miles (10+ km)
Ceiling: at least 12,000 feet AGL
Clouds: few clouds at 2500 feet AGL
Weather: no significant weather observed at this time

METAR text: FSIA 222100Z 15003KT 120V180 9999 FEW024 27/24 Q1011 NOSIG
Conditions at: FSIA (SEYCHELLES INTL , SC) observed 2100 UTC 22 January 2019
Temperature: 27.0°C (81°F)
Dewpoint: 24.0°C (75°F) [RH = 84%]
Pressure (altimeter): 29.85 inches Hg (1011.0 mb)
Winds: from the SSE (150 degrees) at 3 MPH (3 knots; 1.5 m/s)
Visibility: 6 or more miles (10+ km)
Ceiling: at least 12,000 feet AGL
Clouds: few clouds at 2400 feet AGL
Weather: no significant weather observed at this time

METAR text: FSIA 222000Z 18003KT 9999 R13///// SCT022 27/25 Q1012 NOSIG
Conditions at: FSIA (SEYCHELLES INTL , SC) observed 2000 UTC 22 January 2019
Temperature: 27.0°C (81°F)
Dewpoint: 25.0°C (77°F) [RH = 89%]
Pressure (altimeter): 29.88 inches Hg (1012.0 mb)
Winds: from the S (180 degrees) at 3 MPH (3 knots; 1.5 m/s)
Visibility: 6 or more miles (10+ km)
Ceiling: at least 12,000 feet AGL
Clouds: scattered clouds at 2200 feet AGL
Weather: no significant weather observed at this time

METAR text: FSIA 221900Z 26003KT 200V330 9999 BKN020 27/25 Q1013 NOSIG
Conditions at: FSIA (SEYCHELLES INTL , SC) observed 1900 UTC 22 January 2019
Temperature: 27.0°C (81°F)
Dewpoint: 25.0°C (77°F) [RH = 89%]
Pressure (altimeter): 29.91 inches Hg (1013.0 mb)
Winds: from the W (260 degrees) at 3 MPH (3 knots; 1.5 m/s)
Visibility: 6 or more miles (10+ km)
Ceiling: 2000 feet AGL
Clouds: broken clouds at 2000 feet AGL
Weather: no significant weather observed at this time

METAR text: FSIA 221800Z VRB02KT 9999 SCT023 28/24 Q1013 NOSIG
Conditions at: FSIA (SEYCHELLES INTL , SC) observed 1800 UTC 22 January 2019
Temperature: 28.0°C (82°F)
Dewpoint: 24.0°C (75°F) [RH = 79%]
Pressure (altimeter): 29.91 inches Hg (1013.0 mb)
Winds: variable direction winds at 2 MPH (2 knots; 1.0 m/s)
Visibility: 6 or more miles (10+ km)
Ceiling: at least 12,000 feet AGL
Clouds: scattered clouds at 2300 feet AGL
Weather: no significant weather observed at this time

METAR text: FSIA 221700Z 18003KT 150V210 9999 FEW024 28/24 Q1013 NOSIG
Conditions at: FSIA (SEYCHELLES INTL , SC) observed 1700 UTC 22 January 2019
Temperature: 28.0°C (82°F)
Dewpoint: 24.0°C (75°F) [RH = 79%]
Pressure (altimeter): 29.91 inches Hg (1013.0 mb)
Winds: from the S (180 degrees) at 3 MPH (3 knots; 1.5 m/s)
Visibility: 6 or more miles (10+ km)
Ceiling: at least 12,000 feet AGL
Clouds: few clouds at 2400 feet AGL
Weather: no significant weather observed at this time

METAR text: FSIA 221600Z VRB02KT 9999 FEW025 28/24 Q1012 NOSIG
Conditions at: FSIA (SEYCHELLES INTL , SC) observed 1600 UTC 22 January 2019
Temperature: 28.0°C (82°F)
Dewpoint: 24.0°C (75°F) [RH = 79%]
Pressure (altimeter): 29.88 inches Hg (1012.0 mb)
Winds: variable direction winds at 2 MPH (2 knots; 1.0 m/s)
Visibility: 6 or more miles (10+ km)
Ceiling: at least 12,000 feet AGL
Clouds: few clouds at 2500 feet AGL
Weather: no significant weather observed at this time

METAR text: FSIA 221500Z 16003KT 120V200 9999 FEW020 28/24 Q1012 NOSIG
Conditions at: FSIA (SEYCHELLES INTL , SC) observed 1500 UTC 22 January 2019
Temperature: 28.0°C (82°F)
Dewpoint: 24.0°C (75°F) [RH = 79%]
Pressure (altimeter): 29.88 inches Hg (1012.0 mb)
Winds: from the SSE (160 degrees) at 3 MPH (3 knots; 1.5 m/s)
Visibility: 6 or more miles (10+ km)
Ceiling: at least 12,000 feet AGL
Clouds: few clouds at 2000 feet AGL
Weather: no significant weather observed at this time

METAR text: FSIA 221400Z 14005KT 120V180 9999 FEW024 29/24 Q1011 NOSIG
Conditions at: FSIA (SEYCHELLES INTL , SC) observed 1400 UTC 22 January 2019
Temperature: 29.0°C (84°F)
Dewpoint: 24.0°C (75°F) [RH = 74%]
Pressure (altimeter): 29.85 inches Hg (1011.0 mb)
Winds: from the SE (140 degrees) at 6 MPH (5 knots; 2.6 m/s)
Visibility: 6 or more miles (10+ km)
Ceiling: at least 12,000 feet AGL
Clouds: few clouds at 2400 feet AGL
Weather: no significant weather observed at this time

METAR text: FSIA 221300Z 14007KT 9999 FEW002 30/24 Q1010 NOSIG
Conditions at: FSIA (SEYCHELLES INTL , SC) observed 1300 UTC 22 January 2019
Temperature: 30.0°C (86°F)
Dewpoint: 24.0°C (75°F) [RH = 70%]
Pressure (altimeter): 29.82 inches Hg (1010.0 mb)
Winds: from the SE (140 degrees) at 8 MPH (7 knots; 3.6 m/s)
Visibility: 6 or more miles (10+ km)
Ceiling: at least 12,000 feet AGL
Clouds: few clouds at 200 feet AGL
Weather: no significant weather observed at this time

METAR text: FSIA 221200Z 12007KT 090V150 9999 FEW024 30/25 Q1010 NOSIG
Conditions at: FSIA (SEYCHELLES INTL , SC) observed 1200 UTC 22 January 2019
Temperature: 30.0°C (86°F)
Dewpoint: 25.0°C (77°F) [RH = 75%]
Pressure (altimeter): 29.82 inches Hg (1010.0 mb)
Winds: from the ESE (120 degrees) at 8 MPH (7 knots; 3.6 m/s)
Visibility: 6 or more miles (10+ km)
Ceiling: at least 12,000 feet AGL
Clouds: few clouds at 2400 feet AGL
Weather: no significant weather observed at this time

METAR text: FSIA 221100Z 09006KT 9999 FEW020 30/25 Q1010 NOSIG
Conditions at: FSIA (SEYCHELLES INTL , SC) observed 1100 UTC 22 January 2019
Temperature: 30.0°C (86°F)
Dewpoint: 25.0°C (77°F) [RH = 75%]
Pressure (altimeter): 29.82 inches Hg (1010.0 mb)
Winds: from the E (90 degrees) at 7 MPH (6 knots; 3.1 m/s)
Visibility: 6 or more miles (10+ km)
Ceiling: at least 12,000 feet AGL
Clouds: few clouds at 2000 feet AGL
Weather: no significant weather observed at this time

METAR text: FSIA 221000Z 07006KT 9999 FEW025 30/24 Q1011 NOSIG
Conditions at: FSIA (SEYCHELLES INTL , SC) observed 1000 UTC 22 January 2019
Temperature: 30.0°C (86°F)
Dewpoint: 24.0°C (75°F) [RH = 70%]
Pressure (altimeter): 29.85 inches Hg (1011.0 mb)
Winds: from the ENE (70 degrees) at 7 MPH (6 knots; 3.1 m/s)
Visibility: 6 or more miles (10+ km)
Ceiling: at least 12,000 feet AGL
Clouds: few clouds at 2500 feet AGL
Weather: no significant weather observed at this time

METAR text: FSIA 220900Z 09006KT 050V120 9999 FEW022 30/25 Q1012 NOSIG
Conditions at: FSIA (SEYCHELLES INTL , SC) observed 0900 UTC 22 January 2019
Temperature: 30.0°C (86°F)
Dewpoint: 25.0°C (77°F) [RH = 75%]
Pressure (altimeter): 29.88 inches Hg (1012.0 mb)
Winds: from the E (90 degrees) at 7 MPH (6 knots; 3.1 m/s)
Visibility: 6 or more miles (10+ km)
Ceiling: at least 12,000 feet AGL
Clouds: few clouds at 2200 feet AGL
Weather: no significant weather observed at this time

METAR text: FSIA 220800Z 09007KT 070V130 9999 FEW024 30/25 Q1013 NOSIG
Conditions at: FSIA (SEYCHELLES INTL , SC) observed 0800 UTC 22 January 2019
Temperature: 30.0°C (86°F)
Dewpoint: 25.0°C (77°F) [RH = 75%]
Pressure (altimeter): 29.91 inches Hg (1013.0 mb)
Winds: from the E (90 degrees) at 8 MPH (7 knots; 3.6 m/s)
Visibility: 6 or more miles (10+ km)
Ceiling: at least 12,000 feet AGL
Clouds: few clouds at 2400 feet AGL
Weather: no significant weather observed at this time

METAR text: FSIA 220700Z 11007KT 070V150 9999 FEW022 FEW024CB 30/25 Q1013 NOSIG
Conditions at: FSIA (SEYCHELLES INTL , SC) observed 0700 UTC 22 January 2019
Temperature: 30.0°C (86°F)
Dewpoint: 25.0°C (77°F) [RH = 75%]
Pressure (altimeter): 29.91 inches Hg (1013.0 mb)
Winds: from the ESE (110 degrees) at 8 MPH (7 knots; 3.6 m/s)
Visibility: 6 or more miles (10+ km)
Ceiling: at least 12,000 feet AGL
Clouds: few clouds at 2200 feet AGL
few clouds at 2400 feet AGL
Weather: no significant weather observed at this time

METAR text: FSIA 220600Z 12007KT 080V160 9999 FEW022 FEW024CB 30/25 Q1014 NOSIG
Conditions at: FSIA (SEYCHELLES INTL , SC) observed 0600 UTC 22 January 2019
Temperature: 30.0°C (86°F)
Dewpoint: 25.0°C (77°F) [RH = 75%]
Pressure (altimeter): 29.94 inches Hg (1014.0 mb)
Winds: from the ESE (120 degrees) at 8 MPH (7 knots; 3.6 m/s)
Visibility: 6 or more miles (10+ km)
Ceiling: at least 12,000 feet AGL
Clouds: few clouds at 2200 feet AGL
few clouds at 2400 feet AGL
Weather: no significant weather observed at this time

METAR text: FSIA 220500Z 10005KT 030V140 9999 FEW020 FEW022CB 30/24 Q1014 NOSIG
Conditions at: FSIA (SEYCHELLES INTL , SC) observed 0500 UTC 22 January 2019
Temperature: 30.0°C (86°F)
Dewpoint: 24.0°C (75°F) [RH = 70%]
Pressure (altimeter): 29.94 inches Hg (1014.0 mb)
Winds: from the E (100 degrees) at 6 MPH (5 knots; 2.6 m/s)
Visibility: 6 or more miles (10+ km)
Ceiling: at least 12,000 feet AGL
Clouds: few clouds at 2000 feet AGL
few clouds at 2200 feet AGL
Weather: no significant weather observed at this time

METAR text: FSIA 220400Z 12003KT 080V150 9999 FEW022 29/25 Q1013 NOSIG
Conditions at: FSIA (SEYCHELLES INTL , SC) observed 0400 UTC 22 January 2019
Temperature: 29.0°C (84°F)
Dewpoint: 25.0°C (77°F) [RH = 79%]
Pressure (altimeter): 29.91 inches Hg (1013.0 mb)
Winds: from the ESE (120 degrees) at 3 MPH (3 knots; 1.5 m/s)
Visibility: 6 or more miles (10+ km)
Ceiling: at least 12,000 feet AGL
Clouds: few clouds at 2200 feet AGL
Weather: no significant weather observed at this time

METAR text: FSIA 220300Z 23002KT 9999 FEW024 26/24 Q1013 NOSIG
Conditions at: FSIA (SEYCHELLES INTL , SC) observed 0300 UTC 22 January 2019
Temperature: 26.0°C (79°F)
Dewpoint: 24.0°C (75°F) [RH = 89%]
Pressure (altimeter): 29.91 inches Hg (1013.0 mb)
Winds: from the SW (230 degrees) at 2 MPH (2 knots; 1.0 m/s)
Visibility: 6 or more miles (10+ km)
Ceiling: at least 12,000 feet AGL
Clouds: few clouds at 2400 feet AGL
Weather: no significant weather observed at this time

METAR text: FSIA 220200Z VRB02KT 9999 FEW024 26/24 Q1012 NOSIG
Conditions at: FSIA (SEYCHELLES INTL , SC) observed 0200 UTC 22 January 2019
Temperature: 26.0°C (79°F)
Dewpoint: 24.0°C (75°F) [RH = 89%]
Pressure (altimeter): 29.88 inches Hg (1012.0 mb)
Winds: variable direction winds at 2 MPH (2 knots; 1.0 m/s)
Visibility: 6 or more miles (10+ km)
Ceiling: at least 12,000 feet AGL
Clouds: few clouds at 2400 feet AGL
Weather: no significant weather observed at this time

Forecast for: FSIA (SEYCHELLES INTL , SC)
Text: TAF FSIA 231100Z 2312/2412 VRB05KT 9999 SCT022
Forecast period: 1200 UTC 23 January 2019 to 1200 UTC 24 January 2019
Forecast type: FROM: standard forecast or significant change
Winds: variable direction winds at 6 MPH (5 knots; 2.6 m/s)
Visibility: 6 or more miles 10+ km)
Ceiling: at least 12,000 feet AGL
Clouds: scattered clouds at 2200 feet AGL
Weather: no significant weather forecast for this period
Text: TEMPO 2312/2324 8000 -TSRA FEW010 FEW016CB BKN020
Forecast period: 1200 UTC 23 January 2019 to 0000 UTC 24 January 2019
Forecast type: TEMPORARY: The following changes expected for less than half the time period
Visibility: 5 miles (8 km)
Ceiling: 2000 feet AGL
Clouds: few clouds at 1000 feet AGL
few clouds at 1600 feet AGL
broken clouds at 2000 feet AGL
Weather: -TSRA  (light rain associated with thunderstorm(s))
Text: TEMPO 2400/2412 8000 -SHRA FEW012 FEW018CB BKN024
Forecast period: 0000 to 1200 UTC 24 January 2019
Forecast type: TEMPORARY: The following changes expected for less than half the time period
Visibility: 5 miles (8 km)
Ceiling: 2400 feet AGL
Clouds: few clouds at 1200 feet AGL
few clouds at 1800 feet AGL
broken clouds at 2400 feet AGL
Weather: -SHRA  (light rain showers)